sensor_id;sensor_type;location;lat;lon;timestamp;P1;durP1;ratioP1;P2;durP2;ratioP2
79401;SDS011;68857;47.916;106.940;2023-12-07T00:01:56;57.67;;;22.17;;
79401;SDS011;68857;47.916;106.940;2023-12-07T00:04:23;53.90;;;19.92;;
79401;SDS011;68857;47.916;106.940;2023-12-07T00:06:49;56.20;;;19.73;;
79401;SDS011;68857;47.916;106.940;2023-12-07T00:09:16;60.97;;;21.75;;
79401;SDS011;68857;47.916;106.940;2023-12-07T00:11:43;65.82;;;25.00;;
79401;SDS011;68857;47.916;106.940;2023-12-07T00:14:09;60.85;;;21.42;;
79401;SDS011;68857;47.916;106.940;2023-12-07T00:16:36;61.92;;;22.77;;
79401;SDS011;68857;47.916;106.940;2023-12-07T00:19:03;58.58;;;22.92;;
79401;SDS011;68857;47.916;106.940;2023-12-07T00:21:30;55.47;;;20.67;;
79401;SDS011;68857;47.916;106.940;2023-12-07T00:23:57;55.15;;;20.55;;
79401;SDS011;68857;47.916;106.940;2023-12-07T00:26:23;57.72;;;20.42;;
79401;SDS011;68857;47.916;106.940;2023-12-07T00:28:50;64.72;;;21.48;;
79401;SDS011;68857;47.916;106.940;2023-12-07T00:31:17;65.95;;;22.63;;
79401;SDS011;68857;47.916;106.940;2023-12-07T00:33:45;56.92;;;21.10;;
79401;SDS011;68857;47.916;106.940;2023-12-07T00:36:12;68.65;;;23.73;;
79401;SDS011;68857;47.916;106.940;2023-12-07T00:38:39;62.08;;;21.92;;
79401;SDS011;68857;47.916;106.940;2023-12-07T00:41:06;70.63;;;22.85;;
79401;SDS011;68857;47.916;106.940;2023-12-07T00:43:33;68.63;;;25.50;;
79401;SDS011;68857;47.916;106.940;2023-12-07T00:46:00;65.15;;;23.73;;
79401;SDS011;68857;47.916;106.940;2023-12-07T00:48:27;66.63;;;26.73;;
79401;SDS011;68857;47.916;106.940;2023-12-07T00:50:54;70.82;;;27.63;;
79401;SDS011;68857;47.916;106.940;2023-12-07T00:53:21;64.80;;;26.50;;
79401;SDS011;68857;47.916;106.940;2023-12-07T00:55:47;75.32;;;27.85;;
79401;SDS011;68857;47.916;106.940;2023-12-07T00:58:14;72.25;;;27.83;;
79401;SDS011;68857;47.916;106.940;2023-12-07T01:00:41;64.32;;;26.00;;
79401;SDS011;68857;47.916;106.940;2023-12-07T01:03:08;68.20;;;25.48;;
79401;SDS011;68857;47.916;106.940;2023-12-07T01:05:35;66.65;;;23.77;;
79401;SDS011;68857;47.916;106.940;2023-12-07T01:08:01;69.25;;;26.85;;
79401;SDS011;68857;47.916;106.940;2023-12-07T01:10:28;66.75;;;26.33;;
79401;SDS011;68857;47.916;106.940;2023-12-07T01:12:55;71.18;;;25.58;;
79401;SDS011;68857;47.916;106.940;2023-12-07T01:15:22;63.50;;;26.90;;
79401;SDS011;68857;47.916;106.940;2023-12-07T01:17:49;65.20;;;24.88;;
79401;SDS011;68857;47.916;106.940;2023-12-07T01:20:15;80.30;;;29.52;;
79401;SDS011;68857;47.916;106.940;2023-12-07T01:22:42;94.60;;;33.05;;
79401;SDS011;68857;47.916;106.940;2023-12-07T01:25:11;94.07;;;36.45;;
79401;SDS011;68857;47.916;106.940;2023-12-07T01:27:42;96.90;;;37.35;;
79401;SDS011;68857;47.916;106.940;2023-12-07T01:30:09;91.35;;;38.08;;
79401;SDS011;68857;47.916;106.940;2023-12-07T01:32:36;102.80;;;39.10;;
79401;SDS011;68857;47.916;106.940;2023-12-07T01:35:02;95.75;;;35.42;;
79401;SDS011;68857;47.916;106.940;2023-12-07T01:39:56;87.15;;;31.13;;
79401;SDS011;68857;47.916;106.940;2023-12-07T01:42:22;93.85;;;35.55;;
79401;SDS011;68857;47.916;106.940;2023-12-07T01:44:49;83.50;;;34.22;;
79401;SDS011;68857;47.916;106.940;2023-12-07T01:47:16;85.15;;;35.45;;
79401;SDS011;68857;47.916;106.940;2023-12-07T01:49:43;83.57;;;33.13;;
79401;SDS011;68857;47.916;106.940;2023-12-07T01:52:10;87.68;;;32.38;;
79401;SDS011;68857;47.916;106.940;2023-12-07T01:54:38;86.35;;;33.33;;
79401;SDS011;68857;47.916;106.940;2023-12-07T01:57:05;96.93;;;34.08;;
79401;SDS011;68857;47.916;106.940;2023-12-07T01:59:32;88.60;;;35.10;;
79401;SDS011;68857;47.916;106.940;2023-12-07T02:01:59;85.35;;;33.83;;
79401;SDS011;68857;47.916;106.940;2023-12-07T02:04:25;93.07;;;32.83;;
79401;SDS011;68857;47.916;106.940;2023-12-07T02:06:53;93.43;;;32.92;;
79401;SDS011;68857;47.916;106.940;2023-12-07T02:09:21;85.20;;;33.80;;
79401;SDS011;68857;47.916;106.940;2023-12-07T02:11:48;78.88;;;30.98;;
79401;SDS011;68857;47.916;106.940;2023-12-07T02:14:15;93.82;;;33.08;;
79401;SDS011;68857;47.916;106.940;2023-12-07T02:16:48;84.00;;;31.85;;
79401;SDS011;68857;47.916;106.940;2023-12-07T02:22:05;83.20;;;31.50;;
79401;SDS011;68857;47.916;106.940;2023-12-07T02:24:35;93.07;;;36.20;;
79401;SDS011;68857;47.916;106.940;2023-12-07T02:27:04;97.53;;;36.67;;
79401;SDS011;68857;47.916;106.940;2023-12-07T02:29:31;103.90;;;41.10;;
79401;SDS011;68857;47.916;106.940;2023-12-07T02:31:57;117.03;;;42.15;;
79401;SDS011;68857;47.916;106.940;2023-12-07T02:34:24;131.27;;;49.30;;
79401;SDS011;68857;47.916;106.940;2023-12-07T02:36:51;131.13;;;49.42;;
79401;SDS011;68857;47.916;106.940;2023-12-07T02:39:20;134.63;;;45.63;;
79401;SDS011;68857;47.916;106.940;2023-12-07T02:41:47;132.52;;;56.20;;
79401;SDS011;68857;47.916;106.940;2023-12-07T02:44:16;130.52;;;52.78;;
79401;SDS011;68857;47.916;106.940;2023-12-07T02:49:09;134.57;;;51.05;;
79401;SDS011;68857;47.916;106.940;2023-12-07T02:51:35;135.15;;;54.00;;
79401;SDS011;68857;47.916;106.940;2023-12-07T02:54:02;150.20;;;58.75;;
79401;SDS011;68857;47.916;106.940;2023-12-07T02:58:55;140.63;;;48.75;;
79401;SDS011;68857;47.916;106.940;2023-12-07T03:01:22;127.22;;;52.20;;
79401;SDS011;68857;47.916;106.940;2023-12-07T03:03:49;129.07;;;52.10;;
79401;SDS011;68857;47.916;106.940;2023-12-07T03:08:45;137.55;;;50.17;;
79401;SDS011;68857;47.916;106.940;2023-12-07T03:11:11;151.05;;;57.75;;
79401;SDS011;68857;47.916;106.940;2023-12-07T03:13:38;147.13;;;56.95;;
79401;SDS011;68857;47.916;106.940;2023-12-07T03:18:32;145.35;;;54.70;;
79401;SDS011;68857;47.916;106.940;2023-12-07T03:20:58;160.60;;;62.45;;
79401;SDS011;68857;47.916;106.940;2023-12-07T03:23:28;158.38;;;61.95;;
79401;SDS011;68857;47.916;106.940;2023-12-07T03:25:55;149.43;;;57.83;;
79401;SDS011;68857;47.916;106.940;2023-12-07T03:28:22;147.68;;;59.47;;
79401;SDS011;68857;47.916;106.940;2023-12-07T03:30:48;168.27;;;64.28;;
79401;SDS011;68857;47.916;106.940;2023-12-07T03:33:15;166.00;;;64.47;;
79401;SDS011;68857;47.916;106.940;2023-12-07T03:38:08;145.10;;;55.20;;
79401;SDS011;68857;47.916;106.940;2023-12-07T03:40:35;142.15;;;54.05;;
79401;SDS011;68857;47.916;106.940;2023-12-07T03:43:03;135.90;;;53.25;;
79401;SDS011;68857;47.916;106.940;2023-12-07T03:45:30;135.90;;;51.53;;
79401;SDS011;68857;47.916;106.940;2023-12-07T03:47:57;122.88;;;50.60;;
79401;SDS011;68857;47.916;106.940;2023-12-07T03:50:24;136.02;;;50.85;;
79401;SDS011;68857;47.916;106.940;2023-12-07T03:55:17;111.40;;;46.50;;
79401;SDS011;68857;47.916;106.940;2023-12-07T03:57:44;119.47;;;46.75;;
79401;SDS011;68857;47.916;106.940;2023-12-07T04:00:11;113.78;;;44.65;;
79401;SDS011;68857;47.916;106.940;2023-12-07T04:02:38;111.72;;;43.30;;
79401;SDS011;68857;47.916;106.940;2023-12-07T04:05:06;111.13;;;43.65;;
79401;SDS011;68857;47.916;106.940;2023-12-07T04:07:33;106.75;;;43.90;;
79401;SDS011;68857;47.916;106.940;2023-12-07T04:10:00;101.65;;;40.83;;
79401;SDS011;68857;47.916;106.940;2023-12-07T04:14:53;100.70;;;40.53;;
79401;SDS011;68857;47.916;106.940;2023-12-07T04:17:19;100.47;;;38.40;;
79401;SDS011;68857;47.916;106.940;2023-12-07T04:19:46;88.72;;;37.40;;
79401;SDS011;68857;47.916;106.940;2023-12-07T04:22:13;107.75;;;41.50;;
79401;SDS011;68857;47.916;106.940;2023-12-07T04:27:06;96.15;;;39.38;;
79401;SDS011;68857;47.916;106.940;2023-12-07T04:29:33;101.45;;;40.45;;
79401;SDS011;68857;47.916;106.940;2023-12-07T04:32:01;101.15;;;40.83;;
79401;SDS011;68857;47.916;106.940;2023-12-07T04:34:28;93.60;;;38.95;;
79401;SDS011;68857;47.916;106.940;2023-12-07T04:36:54;101.88;;;41.80;;
79401;SDS011;68857;47.916;106.940;2023-12-07T04:39:21;96.68;;;39.67;;
79401;SDS011;68857;47.916;106.940;2023-12-07T04:41:48;94.32;;;39.88;;
79401;SDS011;68857;47.916;106.940;2023-12-07T04:44:15;98.72;;;41.28;;
79401;SDS011;68857;47.916;106.940;2023-12-07T04:46:42;98.40;;;37.45;;
79401;SDS011;68857;47.916;106.940;2023-12-07T04:49:09;97.45;;;40.13;;
79401;SDS011;68857;47.916;106.940;2023-12-07T04:54:02;98.90;;;40.92;;
79401;SDS011;68857;47.916;106.940;2023-12-07T04:58:55;105.53;;;43.40;;
79401;SDS011;68857;47.916;106.940;2023-12-07T05:03:48;99.88;;;45.05;;
79401;SDS011;68857;47.916;106.940;2023-12-07T05:08:41;96.88;;;40.95;;
79401;SDS011;68857;47.916;106.940;2023-12-07T05:11:08;95.18;;;41.53;;
79401;SDS011;68857;47.916;106.940;2023-12-07T05:16:01;77.93;;;34.70;;
79401;SDS011;68857;47.916;106.940;2023-12-07T05:18:29;79.10;;;31.60;;
79401;SDS011;68857;47.916;106.940;2023-12-07T05:20:56;72.47;;;29.77;;
79401;SDS011;68857;47.916;106.940;2023-12-07T05:23:23;59.88;;;24.98;;
79401;SDS011;68857;47.916;106.940;2023-12-07T05:28:16;57.08;;;23.95;;
79401;SDS011;68857;47.916;106.940;2023-12-07T05:33:09;52.75;;;20.98;;
79401;SDS011;68857;47.916;106.940;2023-12-07T05:38:02;48.80;;;18.48;;
79401;SDS011;68857;47.916;106.940;2023-12-07T05:40:30;44.33;;;18.35;;
79401;SDS011;68857;47.916;106.940;2023-12-07T05:42:57;44.00;;;15.45;;
79401;SDS011;68857;47.916;106.940;2023-12-07T05:47:51;40.00;;;13.45;;
79401;SDS011;68857;47.916;106.940;2023-12-07T05:50:18;32.60;;;12.18;;
79401;SDS011;68857;47.916;106.940;2023-12-07T05:52:45;41.78;;;15.38;;
79401;SDS011;68857;47.916;106.940;2023-12-07T05:55:12;36.65;;;14.25;;
79401;SDS011;68857;47.916;106.940;2023-12-07T05:57:39;32.90;;;13.05;;
79401;SDS011;68857;47.916;106.940;2023-12-07T06:00:06;31.33;;;12.50;;
79401;SDS011;68857;47.916;106.940;2023-12-07T06:02:36;30.48;;;12.55;;
79401;SDS011;68857;47.916;106.940;2023-12-07T06:07:32;29.35;;;10.90;;
79401;SDS011;68857;47.916;106.940;2023-12-07T06:09:59;23.60;;;10.63;;
79401;SDS011;68857;47.916;106.940;2023-12-07T06:14:52;24.00;;;9.73;;
79401;SDS011;68857;47.916;106.940;2023-12-07T06:17:20;22.80;;;10.27;;
79401;SDS011;68857;47.916;106.940;2023-12-07T06:19:47;22.20;;;10.52;;
79401;SDS011;68857;47.916;106.940;2023-12-07T06:24:40;22.27;;;9.48;;
79401;SDS011;68857;47.916;106.940;2023-12-07T06:27:06;25.02;;;10.73;;
79401;SDS011;68857;47.916;106.940;2023-12-07T06:29:35;25.17;;;10.75;;
79401;SDS011;68857;47.916;106.940;2023-12-07T06:32:02;21.33;;;9.25;;
79401;SDS011;68857;47.916;106.940;2023-12-07T06:34:29;25.52;;;10.05;;
79401;SDS011;68857;47.916;106.940;2023-12-07T06:36:56;19.67;;;8.98;;
79401;SDS011;68857;47.916;106.940;2023-12-07T06:41:49;19.20;;;9.18;;
79401;SDS011;68857;47.916;106.940;2023-12-07T06:44:15;24.02;;;10.02;;
79401;SDS011;68857;47.916;106.940;2023-12-07T06:49:08;13.68;;;6.75;;
79401;SDS011;68857;47.916;106.940;2023-12-07T06:51:38;14.77;;;6.85;;
79401;SDS011;68857;47.916;106.940;2023-12-07T06:54:04;18.75;;;8.02;;
79401;SDS011;68857;47.916;106.940;2023-12-07T06:58:57;20.20;;;8.38;;
79401;SDS011;68857;47.916;106.940;2023-12-07T07:03:51;18.30;;;7.80;;
79401;SDS011;68857;47.916;106.940;2023-12-07T07:08:44;15.95;;;7.88;;
79401;SDS011;68857;47.916;106.940;2023-12-07T07:13:37;15.60;;;6.95;;
79401;SDS011;68857;47.916;106.940;2023-12-07T07:18:30;16.70;;;6.95;;
79401;SDS011;68857;47.916;106.940;2023-12-07T07:23:23;15.77;;;7.20;;
79401;SDS011;68857;47.916;106.940;2023-12-07T07:25:49;19.83;;;7.88;;
79401;SDS011;68857;47.916;106.940;2023-12-07T07:30:44;18.52;;;7.30;;
79401;SDS011;68857;47.916;106.940;2023-12-07T07:33:10;17.45;;;8.15;;
79401;SDS011;68857;47.916;106.940;2023-12-07T07:38:03;20.30;;;8.82;;
79401;SDS011;68857;47.916;106.940;2023-12-07T07:42:56;30.25;;;9.60;;
79401;SDS011;68857;47.916;106.940;2023-12-07T07:45:24;35.47;;;10.02;;
79401;SDS011;68857;47.916;106.940;2023-12-07T07:47:50;26.15;;;10.15;;
79401;SDS011;68857;47.916;106.940;2023-12-07T07:50:17;31.55;;;11.32;;
79401;SDS011;68857;47.916;106.940;2023-12-07T07:55:10;37.97;;;14.07;;
79401;SDS011;68857;47.916;106.940;2023-12-07T07:57:37;35.80;;;14.95;;
79401;SDS011;68857;47.916;106.940;2023-12-07T08:02:30;42.35;;;16.95;;
79401;SDS011;68857;47.916;106.940;2023-12-07T08:04:57;42.78;;;17.48;;
79401;SDS011;68857;47.916;106.940;2023-12-07T08:07:24;52.75;;;19.77;;
79401;SDS011;68857;47.916;106.940;2023-12-07T08:12:18;63.33;;;25.17;;
79401;SDS011;68857;47.916;106.940;2023-12-07T08:14:45;65.18;;;26.40;;
79401;SDS011;68857;47.916;106.940;2023-12-07T08:17:13;62.08;;;25.80;;
79401;SDS011;68857;47.916;106.940;2023-12-07T08:19:43;56.38;;;22.42;;
79401;SDS011;68857;47.916;106.940;2023-12-07T08:22:10;54.42;;;22.50;;
79401;SDS011;68857;47.916;106.940;2023-12-07T08:27:03;53.05;;;21.65;;
79401;SDS011;68857;47.916;106.940;2023-12-07T08:29:30;46.42;;;20.65;;
79401;SDS011;68857;47.916;106.940;2023-12-07T08:31:57;47.53;;;21.60;;
79401;SDS011;68857;47.916;106.940;2023-12-07T08:36:50;44.17;;;18.77;;
79401;SDS011;68857;47.916;106.940;2023-12-07T08:41:43;44.85;;;17.85;;
79401;SDS011;68857;47.916;106.940;2023-12-07T08:46:36;47.35;;;17.90;;
79401;SDS011;68857;47.916;106.940;2023-12-07T08:51:29;26.58;;;11.93;;
79401;SDS011;68857;47.916;106.940;2023-12-07T08:53:56;29.25;;;12.02;;
79401;SDS011;68857;47.916;106.940;2023-12-07T08:56:23;28.80;;;11.00;;
79401;SDS011;68857;47.916;106.940;2023-12-07T08:58:50;26.00;;;11.10;;
79401;SDS011;68857;47.916;106.940;2023-12-07T09:01:17;21.60;;;9.48;;
79401;SDS011;68857;47.916;106.940;2023-12-07T09:03:44;23.50;;;10.18;;
79401;SDS011;68857;47.916;106.940;2023-12-07T09:08:39;22.52;;;10.30;;
79401;SDS011;68857;47.916;106.940;2023-12-07T09:11:06;27.80;;;8.65;;
79401;SDS011;68857;47.916;106.940;2023-12-07T09:13:33;21.92;;;8.88;;
79401;SDS011;68857;47.916;106.940;2023-12-07T09:16:00;22.52;;;9.07;;
79401;SDS011;68857;47.916;106.940;2023-12-07T09:20:53;19.30;;;8.55;;
79401;SDS011;68857;47.916;106.940;2023-12-07T09:25:46;22.00;;;8.60;;
79401;SDS011;68857;47.916;106.940;2023-12-07T09:30:39;17.80;;;7.03;;
79401;SDS011;68857;47.916;106.940;2023-12-07T09:35:32;23.55;;;7.30;;
79401;SDS011;68857;47.916;106.940;2023-12-07T09:37:59;22.45;;;8.20;;
79401;SDS011;68857;47.916;106.940;2023-12-07T09:40:26;24.73;;;7.85;;
79401;SDS011;68857;47.916;106.940;2023-12-07T09:42:54;22.00;;;6.57;;
79401;SDS011;68857;47.916;106.940;2023-12-07T09:45:20;22.38;;;6.30;;
79401;SDS011;68857;47.916;106.940;2023-12-07T09:47:48;19.63;;;4.75;;
79401;SDS011;68857;47.916;106.940;2023-12-07T09:50:16;23.25;;;5.20;;
79401;SDS011;68857;47.916;106.940;2023-12-07T09:52:43;17.75;;;4.57;;
79401;SDS011;68857;47.916;106.940;2023-12-07T09:55:10;12.48;;;4.38;;
79401;SDS011;68857;47.916;106.940;2023-12-07T09:57:37;13.75;;;3.80;;
79401;SDS011;68857;47.916;106.940;2023-12-07T10:02:30;11.30;;;3.00;;
79401;SDS011;68857;47.916;106.940;2023-12-07T10:05:07;12.02;;;3.67;;
79401;SDS011;68857;47.916;106.940;2023-12-07T10:07:42;11.30;;;3.30;;
79401;SDS011;68857;47.916;106.940;2023-12-07T10:10:10;11.02;;;3.58;;
79401;SDS011;68857;47.916;106.940;2023-12-07T10:12:43;9.55;;;3.05;;
79401;SDS011;68857;47.916;106.940;2023-12-07T10:15:12;11.20;;;3.97;;
79401;SDS011;68857;47.916;106.940;2023-12-07T10:17:45;13.73;;;4.70;;
79401;SDS011;68857;47.916;106.940;2023-12-07T10:20:14;14.15;;;6.22;;
79401;SDS011;68857;47.916;106.940;2023-12-07T10:22:41;15.05;;;6.22;;
79401;SDS011;68857;47.916;106.940;2023-12-07T10:27:34;15.90;;;8.00;;
79401;SDS011;68857;47.916;106.940;2023-12-07T10:30:01;13.27;;;6.70;;
79401;SDS011;68857;47.916;106.940;2023-12-07T10:34:54;17.88;;;7.13;;
79401;SDS011;68857;47.916;106.940;2023-12-07T10:37:23;19.27;;;7.85;;
79401;SDS011;68857;47.916;106.940;2023-12-07T10:39:51;14.32;;;6.50;;
79401;SDS011;68857;47.916;106.940;2023-12-07T10:42:18;16.35;;;6.53;;
79401;SDS011;68857;47.916;106.940;2023-12-07T10:44:45;16.10;;;6.30;;
79401;SDS011;68857;47.916;106.940;2023-12-07T10:47:12;11.52;;;4.63;;
79401;SDS011;68857;47.916;106.940;2023-12-07T10:49:40;10.45;;;4.93;;
79401;SDS011;68857;47.916;106.940;2023-12-07T10:52:12;13.48;;;5.32;;
79401;SDS011;68857;47.916;106.940;2023-12-07T10:55:02;11.45;;;5.80;;
79401;SDS011;68857;47.916;106.940;2023-12-07T10:57:26;15.93;;;6.90;;
79401;SDS011;68857;47.916;106.940;2023-12-07T10:59:53;14.63;;;5.78;;
79401;SDS011;68857;47.916;106.940;2023-12-07T11:02:21;13.45;;;5.25;;
79401;SDS011;68857;47.916;106.940;2023-12-07T11:04:48;11.90;;;4.65;;
79401;SDS011;68857;47.916;106.940;2023-12-07T11:07:16;14.73;;;5.40;;
79401;SDS011;68857;47.916;106.940;2023-12-07T11:09:47;13.57;;;5.95;;
79401;SDS011;68857;47.916;106.940;2023-12-07T11:12:19;13.45;;;5.70;;
79401;SDS011;68857;47.916;106.940;2023-12-07T11:14:49;10.02;;;4.30;;
79401;SDS011;68857;47.916;106.940;2023-12-07T11:19:43;8.38;;;3.10;;
79401;SDS011;68857;47.916;106.940;2023-12-07T11:22:11;14.48;;;4.88;;
79401;SDS011;68857;47.916;106.940;2023-12-07T11:24:39;20.67;;;6.13;;
79401;SDS011;68857;47.916;106.940;2023-12-07T11:27:18;29.05;;;7.18;;
79401;SDS011;68857;47.916;106.940;2023-12-07T11:29:46;29.20;;;7.57;;
79401;SDS011;68857;47.916;106.940;2023-12-07T11:32:15;22.77;;;8.77;;
79401;SDS011;68857;47.916;106.940;2023-12-07T11:34:43;20.55;;;7.60;;
79401;SDS011;68857;47.916;106.940;2023-12-07T11:37:10;17.08;;;6.47;;
79401;SDS011;68857;47.916;106.940;2023-12-07T11:39:38;8.73;;;3.70;;
79401;SDS011;68857;47.916;106.940;2023-12-07T11:42:17;11.95;;;4.60;;
79401;SDS011;68857;47.916;106.940;2023-12-07T11:44:47;9.35;;;3.72;;
79401;SDS011;68857;47.916;106.940;2023-12-07T11:47:17;8.20;;;3.28;;
79401;SDS011;68857;47.916;106.940;2023-12-07T11:49:45;10.23;;;3.85;;
79401;SDS011;68857;47.916;106.940;2023-12-07T11:52:15;9.00;;;2.92;;
79401;SDS011;68857;47.916;106.940;2023-12-07T11:54:46;7.22;;;3.35;;
79401;SDS011;68857;47.916;106.940;2023-12-07T11:57:16;8.00;;;2.40;;
79401;SDS011;68857;47.916;106.940;2023-12-07T11:59:43;5.70;;;2.65;;
79401;SDS011;68857;47.916;106.940;2023-12-07T12:02:11;5.57;;;2.28;;
79401;SDS011;68857;47.916;106.940;2023-12-07T12:04:38;8.15;;;2.90;;
79401;SDS011;68857;47.916;106.940;2023-12-07T12:09:31;7.63;;;3.13;;
79401;SDS011;68857;47.916;106.940;2023-12-07T12:11:59;6.00;;;2.50;;
79401;SDS011;68857;47.916;106.940;2023-12-07T12:16:52;9.73;;;3.20;;
79401;SDS011;68857;47.916;106.940;2023-12-07T12:19:21;7.80;;;2.90;;
79401;SDS011;68857;47.916;106.940;2023-12-07T12:21:49;7.72;;;3.10;;
79401;SDS011;68857;47.916;106.940;2023-12-07T12:24:16;7.85;;;3.65;;
79401;SDS011;68857;47.916;106.940;2023-12-07T12:26:44;8.77;;;3.42;;
79401;SDS011;68857;47.916;106.940;2023-12-07T12:29:12;10.50;;;3.58;;
79401;SDS011;68857;47.916;106.940;2023-12-07T12:31:39;7.15;;;2.92;;
79401;SDS011;68857;47.916;106.940;2023-12-07T12:36:34;7.80;;;2.60;;
79401;SDS011;68857;47.916;106.940;2023-12-07T12:39:01;5.80;;;2.30;;
79401;SDS011;68857;47.916;106.940;2023-12-07T12:41:30;7.68;;;2.60;;
79401;SDS011;68857;47.916;106.940;2023-12-07T12:43:57;5.07;;;1.90;;
79401;SDS011;68857;47.916;106.940;2023-12-07T12:46:25;8.93;;;1.90;;
79401;SDS011;68857;47.916;106.940;2023-12-07T12:51:18;5.55;;;1.65;;
79401;SDS011;68857;47.916;106.940;2023-12-07T12:53:46;4.70;;;1.27;;
79401;SDS011;68857;47.916;106.940;2023-12-07T12:56:14;6.40;;;2.05;;
79401;SDS011;68857;47.916;106.940;2023-12-07T12:58:41;5.78;;;2.08;;
79401;SDS011;68857;47.916;106.940;2023-12-07T13:01:08;4.68;;;1.65;;
79401;SDS011;68857;47.916;106.940;2023-12-07T13:06:01;5.03;;;1.95;;
79401;SDS011;68857;47.916;106.940;2023-12-07T13:08:28;10.18;;;2.15;;
79401;SDS011;68857;47.916;106.940;2023-12-07T13:10:58;5.30;;;2.13;;
79401;SDS011;68857;47.916;106.940;2023-12-07T13:15:51;5.15;;;1.92;;
79401;SDS011;68857;47.916;106.940;2023-12-07T13:18:18;7.90;;;2.20;;
79401;SDS011;68857;47.916;106.940;2023-12-07T13:20:45;6.85;;;2.15;;
79401;SDS011;68857;47.916;106.940;2023-12-07T13:25:38;8.35;;;2.17;;
79401;SDS011;68857;47.916;106.940;2023-12-07T13:28:06;5.20;;;1.85;;
79401;SDS011;68857;47.916;106.940;2023-12-07T13:30:34;5.70;;;2.10;;
79401;SDS011;68857;47.916;106.940;2023-12-07T13:33:01;9.02;;;2.60;;
79401;SDS011;68857;47.916;106.940;2023-12-07T13:35:29;7.22;;;2.22;;
79401;SDS011;68857;47.916;106.940;2023-12-07T13:40:23;6.05;;;2.67;;
79401;SDS011;68857;47.916;106.940;2023-12-07T13:42:52;5.30;;;2.30;;
79401;SDS011;68857;47.916;106.940;2023-12-07T13:47:45;7.97;;;2.13;;
79401;SDS011;68857;47.916;106.940;2023-12-07T13:50:13;5.50;;;2.15;;
79401;SDS011;68857;47.916;106.940;2023-12-07T13:55:07;6.53;;;2.10;;
79401;SDS011;68857;47.916;106.940;2023-12-07T13:57:34;5.93;;;1.83;;
79401;SDS011;68857;47.916;106.940;2023-12-07T14:00:01;6.25;;;2.30;;
79401;SDS011;68857;47.916;106.940;2023-12-07T14:04:54;7.25;;;2.40;;
79401;SDS011;68857;47.916;106.940;2023-12-07T14:07:21;8.98;;;3.53;;
79401;SDS011;68857;47.916;106.940;2023-12-07T14:09:50;9.73;;;3.53;;
79401;SDS011;68857;47.916;106.940;2023-12-07T14:12:17;12.55;;;3.30;;
79401;SDS011;68857;47.916;106.940;2023-12-07T14:14:44;9.70;;;3.50;;
79401;SDS011;68857;47.916;106.940;2023-12-07T14:17:15;8.70;;;3.28;;
79401;SDS011;68857;47.916;106.940;2023-12-07T14:19:43;8.43;;;2.72;;
79401;SDS011;68857;47.916;106.940;2023-12-07T14:22:10;7.55;;;2.63;;
79401;SDS011;68857;47.916;106.940;2023-12-07T14:24:37;13.45;;;3.40;;
79401;SDS011;68857;47.916;106.940;2023-12-07T14:27:04;8.00;;;2.80;;
79401;SDS011;68857;47.916;106.940;2023-12-07T14:29:31;7.68;;;2.90;;
79401;SDS011;68857;47.916;106.940;2023-12-07T14:31:58;7.32;;;2.55;;
79401;SDS011;68857;47.916;106.940;2023-12-07T14:34:26;6.50;;;2.58;;
79401;SDS011;68857;47.916;106.940;2023-12-07T14:36:53;7.40;;;2.72;;
79401;SDS011;68857;47.916;106.940;2023-12-07T14:39:20;8.82;;;2.53;;
79401;SDS011;68857;47.916;106.940;2023-12-07T14:44:13;7.05;;;2.80;;
79401;SDS011;68857;47.916;106.940;2023-12-07T14:46:46;6.90;;;2.25;;
79401;SDS011;68857;47.916;106.940;2023-12-07T14:49:13;9.07;;;3.13;;
79401;SDS011;68857;47.916;106.940;2023-12-07T14:51:40;6.22;;;2.85;;
79401;SDS011;68857;47.916;106.940;2023-12-07T14:56:35;6.53;;;2.53;;
79401;SDS011;68857;47.916;106.940;2023-12-07T14:59:02;7.75;;;2.63;;
79401;SDS011;68857;47.916;106.940;2023-12-07T15:01:29;9.95;;;3.25;;
79401;SDS011;68857;47.916;106.940;2023-12-07T15:03:56;9.68;;;3.83;;
79401;SDS011;68857;47.916;106.940;2023-12-07T15:06:25;8.20;;;3.28;;
79401;SDS011;68857;47.916;106.940;2023-12-07T15:08:52;7.95;;;2.95;;
79401;SDS011;68857;47.916;106.940;2023-12-07T15:11:18;10.10;;;3.45;;
79401;SDS011;68857;47.916;106.940;2023-12-07T15:13:45;10.27;;;2.72;;
79401;SDS011;68857;47.916;106.940;2023-12-07T15:18:39;9.13;;;3.03;;
79401;SDS011;68857;47.916;106.940;2023-12-07T15:21:11;9.52;;;3.15;;
79401;SDS011;68857;47.916;106.940;2023-12-07T15:23:40;10.40;;;3.63;;
79401;SDS011;68857;47.916;106.940;2023-12-07T15:26:10;9.57;;;3.10;;
79401;SDS011;68857;47.916;106.940;2023-12-07T15:28:38;9.75;;;3.03;;
79401;SDS011;68857;47.916;106.940;2023-12-07T15:31:05;11.00;;;3.28;;
79401;SDS011;68857;47.916;106.940;2023-12-07T15:33:33;8.23;;;3.00;;
79401;SDS011;68857;47.916;106.940;2023-12-07T15:36:00;9.60;;;3.50;;
79401;SDS011;68857;47.916;106.940;2023-12-07T15:38:28;10.07;;;3.08;;
79401;SDS011;68857;47.916;106.940;2023-12-07T15:40:55;8.18;;;3.28;;
79401;SDS011;68857;47.916;106.940;2023-12-07T15:43:23;10.90;;;3.22;;
79401;SDS011;68857;47.916;106.940;2023-12-07T15:48:16;9.07;;;3.33;;
79401;SDS011;68857;47.916;106.940;2023-12-07T15:50:44;9.80;;;3.03;;
79401;SDS011;68857;47.916;106.940;2023-12-07T15:53:11;7.82;;;3.00;;
79401;SDS011;68857;47.916;106.940;2023-12-07T15:55:38;10.10;;;3.03;;
79401;SDS011;68857;47.916;106.940;2023-12-07T15:58:05;11.00;;;3.75;;
79401;SDS011;68857;47.916;106.940;2023-12-07T16:00:33;9.00;;;3.38;;
79401;SDS011;68857;47.916;106.940;2023-12-07T16:05:26;11.63;;;3.42;;
79401;SDS011;68857;47.916;106.940;2023-12-07T16:07:53;14.32;;;4.53;;
79401;SDS011;68857;47.916;106.940;2023-12-07T16:10:19;14.38;;;4.75;;
79401;SDS011;68857;47.916;106.940;2023-12-07T16:15:13;12.07;;;3.50;;
79401;SDS011;68857;47.916;106.940;2023-12-07T16:17:40;14.55;;;4.38;;
79401;SDS011;68857;47.916;106.940;2023-12-07T16:20:07;12.13;;;3.53;;
79401;SDS011;68857;47.916;106.940;2023-12-07T16:22:36;9.63;;;3.30;;
79401;SDS011;68857;47.916;106.940;2023-12-07T16:25:03;9.45;;;2.80;;
79401;SDS011;68857;47.916;106.940;2023-12-07T16:29:56;4.13;;;1.50;;
79401;SDS011;68857;47.916;106.940;2023-12-07T16:32:23;5.53;;;1.73;;
79401;SDS011;68857;47.916;106.940;2023-12-07T16:34:51;7.95;;;1.83;;
79401;SDS011;68857;47.916;106.940;2023-12-07T16:37:17;5.55;;;2.15;;
79401;SDS011;68857;47.916;106.940;2023-12-07T16:39:44;7.65;;;3.25;;
79401;SDS011;68857;47.916;106.940;2023-12-07T16:44:38;5.32;;;1.67;;
79401;SDS011;68857;47.916;106.940;2023-12-07T16:47:05;6.07;;;2.20;;
79401;SDS011;68857;47.916;106.940;2023-12-07T16:49:32;6.63;;;2.28;;
79401;SDS011;68857;47.916;106.940;2023-12-07T16:51:58;9.02;;;2.80;;
79401;SDS011;68857;47.916;106.940;2023-12-07T16:54:27;8.90;;;2.53;;